createdAt,value
2023-04-04T00:00:53.577Z,-1.36
2023-04-04T00:03:21.625Z,-1.40
2023-04-04T00:05:51.994Z,-1.44
2023-04-04T00:08:19.861Z,-1.49
2023-04-04T00:10:48.392Z,-1.51
2023-04-04T00:13:17.096Z,-1.50
2023-04-04T00:15:45.019Z,-1.54
2023-04-04T00:18:12.617Z,-1.62
2023-04-04T00:20:41.051Z,-1.60
2023-04-04T00:23:11.394Z,-1.64
2023-04-04T00:25:39.797Z,-1.67
2023-04-04T00:28:07.741Z,-1.75
2023-04-04T00:30:36.253Z,-1.81
2023-04-04T00:33:05.054Z,-1.80
2023-04-04T00:35:33.013Z,-1.78
2023-04-04T00:38:00.749Z,-1.82
2023-04-04T00:40:29.070Z,-1.88
2023-04-04T00:42:57.799Z,-1.86
2023-04-04T00:45:27.655Z,-1.90
2023-04-04T00:47:56.310Z,-1.91
2023-04-04T00:50:24.160Z,-1.94
2023-04-04T00:52:52.080Z,-1.96
2023-04-04T00:55:20.072Z,-2.04
2023-04-04T00:57:48.473Z,-1.97
2023-04-04T01:00:17.186Z,-2.00
2023-04-04T01:02:47.768Z,-2.04
2023-04-04T01:05:16.410Z,-2.16
2023-04-04T01:07:44.314Z,-2.06
2023-04-04T01:10:12.891Z,-2.09
2023-04-04T01:12:42.292Z,-2.17
2023-04-04T01:15:11.207Z,-2.16
2023-04-04T01:17:40.934Z,-2.24
2023-04-04T01:20:16.390Z,-2.24
2023-04-04T01:22:50.508Z,-2.22
2023-04-04T01:25:34.862Z,-2.26
2023-04-04T01:28:10.653Z,-2.30
2023-04-04T01:30:40.917Z,-2.31
2023-04-04T01:33:38.173Z,-2.27
2023-04-04T01:36:22.265Z,-2.22
2023-04-04T01:38:59.675Z,-2.29
2023-04-04T01:41:33.614Z,-2.32
2023-04-04T01:44:03.541Z,-2.34
2023-04-04T01:46:32.030Z,-2.32
2023-04-04T01:49:00.737Z,-2.40
2023-04-04T01:51:33.511Z,-2.33
2023-04-04T01:54:01.657Z,-2.32
2023-04-04T01:56:30.133Z,-2.38
2023-04-04T01:58:58.653Z,-2.43
2023-04-04T02:01:27.387Z,-2.43
2023-04-04T02:03:55.595Z,-2.46
2023-04-04T02:06:23.913Z,-2.47
2023-04-04T02:08:52.415Z,-2.55
2023-04-04T02:11:23.177Z,-2.51
2023-04-04T02:13:51.954Z,-2.52
2023-04-04T02:16:20.720Z,-2.60
2023-04-04T02:18:49.413Z,-2.55
2023-04-04T02:21:17.388Z,-2.53
2023-04-04T02:23:44.914Z,-2.56
2023-04-04T02:26:13.362Z,-2.57
2023-04-04T02:28:40.802Z,-2.62
2023-04-04T02:31:11.840Z,-2.64
2023-04-04T02:33:40.610Z,-2.72
2023-04-04T02:36:10.354Z,-2.68
2023-04-04T02:38:40.349Z,-2.70
2023-04-04T02:41:09.087Z,-2.72
2023-04-04T02:43:37.455Z,-2.79
2023-04-04T02:46:20.561Z,-2.75
2023-04-04T02:48:53.997Z,-2.77
2023-04-04T02:51:22.608Z,-2.78
2023-04-04T02:53:51.120Z,-2.84
2023-04-04T02:56:27.733Z,-2.84
2023-04-04T02:58:55.899Z,-2.84
2023-04-04T03:01:24.240Z,-2.88
2023-04-04T03:03:52.222Z,-2.87
2023-04-04T03:06:21.630Z,-2.89
2023-04-04T03:08:51.503Z,-2.89
2023-04-04T03:11:21.733Z,-2.91
2023-04-04T03:13:52.865Z,-2.95
2023-04-04T03:16:27.464Z,-2.86
2023-04-04T03:18:56.099Z,-2.91
2023-04-04T03:21:24.697Z,-2.83
2023-04-04T03:23:52.619Z,-2.84
2023-04-04T03:26:20.736Z,-2.82
2023-04-04T03:28:48.653Z,-2.84
2023-04-04T03:31:17.746Z,-2.84
2023-04-04T03:33:45.684Z,-2.88
2023-04-04T03:36:14.357Z,-2.83
2023-04-04T03:38:42.130Z,-2.85
2023-04-04T03:41:12.391Z,-2.93
2023-04-04T03:43:40.492Z,-2.91
2023-04-04T03:46:09.719Z,-2.91
2023-04-04T03:48:37.664Z,-2.94
2023-04-04T03:51:09.994Z,-2.95
2023-04-04T03:53:38.944Z,-2.86
2023-04-04T03:56:07.497Z,-2.88
2023-04-04T03:58:37.203Z,-2.91
2023-04-04T04:01:05.984Z,-2.95
2023-04-04T04:03:33.913Z,-2.94
2023-04-04T04:06:02.440Z,-2.93
2023-04-04T04:08:30.123Z,-2.93
2023-04-04T04:11:06.816Z,-2.99
2023-04-04T04:13:38.275Z,-2.96
2023-04-04T04:16:07.120Z,-2.99
2023-04-04T04:18:35.957Z,-2.99
2023-04-04T04:21:07.217Z,-2.97
2023-04-04T04:23:35.233Z,-2.98
2023-04-04T04:26:03.736Z,-2.98
2023-04-04T04:28:33.442Z,-2.92
2023-04-04T04:31:06.505Z,-2.94
2023-04-04T04:33:36.745Z,-2.91
2023-04-04T04:36:07.517Z,-2.78
2023-04-04T04:38:54.618Z,-2.65
2023-04-04T04:41:23.490Z,-2.53
2023-04-04T04:43:52.798Z,-2.35
2023-04-04T04:46:21.916Z,-2.16
2023-04-04T04:48:50.198Z,-1.88
2023-04-04T04:51:23.635Z,-1.64
2023-04-04T04:53:53.432Z,-1.38
2023-04-04T04:56:22.899Z,-1.06
2023-04-04T04:58:53.052Z,-0.90
2023-04-04T05:01:24.197Z,-0.73
2023-04-04T05:03:53.345Z,-0.62
2023-04-04T05:06:28.281Z,-0.47
2023-04-04T05:08:57.347Z,-0.36
2023-04-04T05:11:30.814Z,-0.20
2023-04-04T05:14:24.998Z,-0.27
2023-04-04T05:16:57.346Z,-0.25
2023-04-04T05:19:30.008Z,-0.25
2023-04-04T05:21:59.867Z,-0.23
2023-04-04T05:24:43.325Z,-0.16
2023-04-04T05:27:15.816Z,-0.14
2023-04-04T05:29:48.918Z,-0.06
2023-04-04T05:32:17.615Z,-0.06
2023-04-04T05:34:53.839Z,-0.05
2023-04-04T05:37:22.764Z,-0.05
2023-04-04T05:39:51.298Z,0.10
2023-04-04T05:42:20.039Z,0.25
2023-04-04T05:44:51.935Z,0.39
2023-04-04T05:47:22.509Z,0.42
2023-04-04T05:49:51.462Z,0.47
2023-04-04T05:52:21.228Z,0.79
2023-04-04T05:54:51.808Z,0.97
2023-04-04T05:57:27.877Z,1.04
2023-04-04T05:59:58.477Z,1.14
2023-04-04T06:02:27.746Z,1.17
2023-04-04T06:05:01.276Z,1.39
2023-04-04T06:07:35.796Z,1.79
2023-04-04T06:10:04.760Z,1.69
2023-04-04T06:12:35.507Z,1.69
2023-04-04T06:15:08.978Z,1.65
2023-04-04T06:17:38.608Z,1.58
2023-04-04T06:20:08.586Z,1.87
2023-04-04T06:22:37.057Z,2.17
2023-04-04T06:25:06.775Z,2.29
2023-04-04T06:27:35.983Z,2.51
2023-04-04T06:30:07.862Z,2.48
2023-04-04T06:32:38.907Z,2.23
2023-04-04T06:35:08.739Z,2.22
2023-04-04T06:37:59.994Z,2.22
2023-04-04T06:40:29.802Z,2.23
2023-04-04T06:42:58.708Z,2.51
2023-04-04T06:45:34.132Z,2.84
2023-04-04T06:48:02.898Z,3.00
2023-04-04T06:50:34.562Z,2.88
2023-04-04T06:53:06.280Z,2.86
2023-04-04T06:55:34.976Z,2.78
2023-04-04T06:58:03.252Z,2.72
2023-04-04T07:00:30.645Z,2.97
2023-04-04T07:03:00.325Z,3.37
2023-04-04T07:05:28.798Z,3.01
2023-04-04T07:07:57.624Z,3.27
2023-04-04T07:10:26.274Z,3.45
2023-04-04T07:12:54.132Z,3.61
2023-04-04T07:15:22.220Z,3.76
2023-04-04T07:17:50.157Z,3.61
2023-04-04T07:20:18.405Z,3.38
2023-04-04T07:22:46.845Z,3.50
2023-04-04T07:25:15.232Z,3.35
2023-04-04T07:27:42.949Z,3.58
2023-04-04T07:30:12.227Z,3.83
2023-04-04T07:32:39.966Z,3.68
2023-04-04T07:35:09.246Z,3.59
2023-04-04T07:37:38.052Z,3.17
2023-04-04T07:40:08.838Z,2.63
2023-04-04T07:42:38.366Z,2.35
2023-04-04T07:45:07.139Z,2.26
2023-04-04T07:47:35.054Z,1.98
2023-04-04T07:50:04.709Z,1.75
2023-04-04T07:52:32.645Z,1.74
2023-04-04T07:55:01.665Z,2.14
2023-04-04T07:57:29.844Z,2.25
2023-04-04T07:59:58.490Z,1.96
2023-04-04T08:02:27.133Z,1.90
2023-04-04T08:04:55.959Z,1.78
2023-04-04T08:07:24.518Z,1.73
2023-04-04T08:09:52.571Z,1.67
2023-04-04T08:12:20.684Z,1.49
2023-04-04T08:14:48.825Z,1.43
2023-04-04T08:17:19.489Z,1.42
2023-04-04T08:19:48.228Z,1.60
2023-04-04T08:22:16.180Z,1.92
2023-04-04T08:24:44.785Z,1.91
2023-04-04T08:27:12.669Z,1.91
2023-04-04T08:29:41.090Z,1.83
2023-04-04T08:32:09.783Z,1.62
2023-04-04T08:34:38.620Z,1.41
2023-04-04T08:37:07.232Z,1.68
2023-04-04T08:39:35.558Z,1.73
2023-04-04T08:42:07.855Z,2.16
2023-04-04T08:44:37.631Z,2.49
2023-04-04T08:47:07.263Z,2.44
2023-04-04T08:49:41.677Z,2.23
2023-04-04T08:52:09.926Z,1.88
2023-04-04T08:54:40.785Z,1.79
2023-04-04T08:57:08.920Z,2.08
2023-04-04T08:59:37.650Z,2.50
2023-04-04T09:02:12.241Z,2.65
2023-04-04T09:04:44.646Z,2.35
2023-04-04T09:07:17.408Z,2.37
2023-04-04T09:09:47.760Z,2.33
2023-04-04T09:12:16.391Z,2.46
2023-04-04T09:14:44.889Z,2.61
2023-04-04T09:17:13.696Z,2.38
2023-04-04T09:19:42.053Z,2.31
2023-04-04T09:22:10.044Z,2.31
2023-04-04T09:24:42.738Z,2.65
2023-04-04T09:27:12.297Z,2.98
2023-04-04T09:29:42.223Z,3.36
2023-04-04T09:32:23.420Z,3.17
2023-04-04T09:34:52.228Z,3.23
2023-04-04T09:37:20.290Z,3.13
2023-04-04T09:39:48.848Z,2.92
2023-04-04T09:42:16.860Z,3.28
2023-04-04T09:44:46.192Z,3.68
2023-04-04T09:47:34.044Z,3.60
2023-04-04T09:50:05.129Z,3.54
2023-04-04T09:52:36.234Z,3.57
2023-04-04T09:55:06.406Z,3.31
2023-04-04T09:57:36.225Z,2.93
2023-04-04T10:00:09.835Z,2.79
2023-04-04T10:02:39.634Z,2.71
2023-04-04T10:05:10.700Z,2.35
2023-04-04T10:07:40.307Z,2.27
2023-04-04T10:10:09.579Z,2.20
2023-04-04T10:12:38.296Z,2.15
2023-04-04T10:15:07.613Z,2.34
2023-04-04T10:17:40.473Z,2.54
2023-04-04T10:20:10.145Z,2.73
2023-04-04T10:22:39.006Z,2.65
2023-04-04T10:25:08.456Z,2.53
2023-04-04T10:27:39.033Z,2.54
2023-04-04T10:30:08.856Z,2.40
2023-04-04T10:33:00.387Z,2.36
2023-04-04T10:35:29.893Z,2.52
2023-04-04T10:38:03.655Z,2.76
2023-04-04T10:40:35.006Z,3.07
2023-04-04T10:43:07.005Z,3.10
2023-04-04T10:45:42.598Z,3.07
2023-04-04T10:48:11.051Z,3.03
2023-04-04T10:50:40.084Z,3.04
2023-04-04T10:53:08.760Z,3.41
2023-04-04T10:55:39.449Z,3.45
2023-04-04T10:58:09.153Z,3.09
2023-04-04T11:00:51.387Z,2.44
2023-04-04T11:03:19.310Z,2.09
2023-04-04T11:05:47.882Z,1.97
2023-04-04T11:08:21.033Z,1.85
2023-04-04T11:10:51.763Z,1.81
2023-04-04T11:13:29.522Z,1.75
2023-04-04T11:16:15.885Z,1.68
2023-04-04T11:18:44.109Z,1.75
2023-04-04T11:21:20.444Z,1.88
2023-04-04T11:23:48.794Z,1.95
2023-04-04T11:26:29.464Z,2.02
2023-04-04T11:29:05.060Z,2.21
2023-04-04T11:31:35.524Z,2.49
2023-04-04T11:34:08.292Z,2.71
2023-04-04T11:36:39.121Z,2.95
2023-04-04T11:39:08.533Z,3.17
2023-04-04T11:41:56.116Z,3.01
2023-04-04T11:44:25.022Z,2.87
2023-04-04T11:46:57.464Z,2.68
2023-04-04T11:49:30.594Z,2.48
2023-04-04T11:51:58.946Z,2.22
2023-04-04T11:54:27.662Z,2.09
2023-04-04T11:56:56.211Z,1.83
2023-04-04T11:59:24.895Z,1.89
2023-04-04T12:01:53.074Z,1.75
2023-04-04T12:04:21.454Z,1.75
2023-04-04T12:06:51.994Z,1.85
2023-04-04T12:09:20.844Z,1.83
2023-04-04T12:11:49.890Z,1.95
2023-04-04T12:14:18.105Z,1.93
2023-04-04T12:16:48.085Z,1.91
2023-04-04T12:19:16.831Z,1.98
2023-04-04T12:21:45.335Z,1.94
2023-04-04T12:24:13.473Z,1.95
2023-04-04T12:26:43.137Z,2.01
2023-04-04T12:29:11.204Z,2.00
2023-04-04T12:31:39.921Z,2.00
2023-04-04T12:34:08.686Z,2.04
2023-04-04T12:36:39.675Z,2.06
2023-04-04T12:39:08.761Z,2.12
2023-04-04T12:41:48.186Z,2.18
2023-04-04T12:44:27.896Z,2.18
2023-04-04T12:47:00.760Z,2.11
2023-04-04T12:49:30.650Z,2.04
2023-04-04T12:52:05.166Z,2.02
2023-04-04T12:54:33.452Z,1.99
2023-04-04T12:57:06.015Z,1.97
2023-04-04T12:59:35.236Z,2.09
2023-04-04T13:02:09.435Z,2.08
2023-04-04T13:04:38.190Z,2.02
2023-04-04T13:07:19.617Z,2.09
2023-04-04T13:09:54.405Z,2.02
2023-04-04T13:12:22.933Z,2.01
2023-04-04T13:14:57.635Z,2.09
2023-04-04T13:17:26.206Z,2.21
2023-04-04T13:19:53.913Z,2.24
2023-04-04T13:22:22.741Z,2.30
2023-04-04T13:24:50.353Z,2.32
2023-04-04T13:27:18.393Z,2.44
2023-04-04T13:29:46.683Z,2.40
2023-04-04T13:32:14.557Z,2.54
2023-04-04T13:34:42.438Z,2.51
2023-04-04T13:37:10.118Z,2.58
2023-04-04T13:39:38.509Z,2.65
2023-04-04T13:42:06.781Z,2.73
2023-04-04T13:44:34.476Z,2.65
2023-04-04T13:47:02.910Z,2.55
2023-04-04T13:49:30.813Z,2.56
2023-04-04T13:51:59.144Z,2.58
2023-04-04T13:54:26.924Z,2.61
2023-04-04T13:56:55.855Z,2.60
2023-04-04T13:59:23.701Z,2.56
2023-04-04T14:01:51.971Z,2.66
2023-04-04T14:04:23.770Z,2.66
2023-04-04T14:06:52.307Z,2.55
2023-04-04T14:09:19.996Z,2.66
2023-04-04T14:11:48.917Z,2.58
2023-04-04T14:14:17.315Z,2.66
2023-04-04T14:16:46.905Z,2.71
2023-04-04T14:19:14.706Z,2.83
2023-04-04T14:21:42.557Z,2.82
2023-04-04T14:24:10.242Z,2.99
2023-04-04T14:26:38.344Z,3.03
2023-04-04T14:29:06.048Z,2.98
2023-04-04T14:31:35.375Z,2.89
2023-04-04T14:34:03.991Z,2.96
2023-04-04T14:36:31.961Z,2.90
2023-04-04T14:38:59.556Z,2.83
2023-04-04T14:41:28.023Z,2.72
2023-04-04T14:43:55.829Z,2.63
2023-04-04T14:46:25.488Z,2.62
2023-04-04T14:48:53.664Z,2.58
2023-04-04T14:51:21.831Z,2.69
2023-04-04T14:53:52.512Z,2.66
2023-04-04T14:56:23.352Z,2.64
2023-04-04T14:58:51.982Z,2.66
2023-04-04T15:01:22.196Z,2.69
2023-04-04T15:03:50.286Z,2.57
2023-04-04T15:06:18.618Z,2.64
2023-04-04T15:08:47.145Z,2.56
2023-04-04T15:11:16.560Z,2.48
2023-04-04T15:13:44.461Z,2.45
2023-04-04T15:16:12.943Z,2.47
2023-04-04T15:18:41.282Z,2.53
2023-04-04T15:21:10.177Z,2.53
2023-04-04T15:23:37.998Z,2.49
2023-04-04T15:26:06.761Z,2.44
2023-04-04T15:28:34.600Z,2.37
2023-04-04T15:31:03.226Z,2.38
2023-04-04T15:33:31.813Z,2.25
2023-04-04T15:36:00.115Z,2.33
2023-04-04T15:38:28.409Z,2.29
2023-04-04T15:40:57.996Z,2.25
2023-04-04T15:43:25.759Z,2.22
2023-04-04T15:45:53.707Z,2.25
2023-04-04T15:48:21.528Z,2.24
2023-04-04T15:50:50.011Z,2.24
2023-04-04T15:53:18.324Z,2.29
2023-04-04T15:55:47.436Z,2.26
2023-04-04T15:58:15.217Z,2.28
2023-04-04T16:00:46.187Z,2.15
2023-04-04T16:03:13.962Z,2.15
2023-04-04T16:05:42.331Z,2.12
2023-04-04T16:08:10.049Z,2.14
2023-04-04T16:10:38.501Z,2.20
2023-04-04T16:13:06.918Z,2.21
2023-04-04T16:15:35.185Z,2.10
2023-04-04T16:18:04.502Z,2.08
2023-04-04T16:20:33.017Z,2.08
2023-04-04T16:23:00.810Z,2.13
2023-04-04T16:25:29.270Z,2.11
2023-04-04T16:27:57.257Z,2.09
2023-04-04T16:30:25.122Z,2.03
2023-04-04T16:32:52.818Z,2.04
2023-04-04T16:35:21.568Z,2.06
2023-04-04T16:37:49.614Z,2.03
2023-04-04T16:40:18.162Z,1.99
2023-04-04T16:42:46.549Z,1.93
2023-04-04T16:45:14.719Z,1.96
2023-04-04T16:47:42.290Z,1.88
2023-04-04T16:50:10.930Z,1.92
2023-04-04T16:52:38.699Z,1.90
2023-04-04T16:55:07.231Z,1.93
2023-04-04T16:57:35.314Z,1.86
2023-04-04T17:00:06.657Z,1.88
2023-04-04T17:02:34.326Z,1.87
2023-04-04T17:05:02.187Z,1.94
2023-04-04T17:07:30.326Z,1.94
2023-04-04T17:09:58.831Z,1.94
2023-04-04T17:12:27.010Z,1.93
2023-04-04T17:14:55.001Z,1.87
2023-04-04T17:17:22.670Z,1.92
2023-04-04T17:19:51.394Z,1.91
2023-04-04T17:22:18.927Z,1.97
2023-04-04T17:24:47.403Z,1.88
2023-04-04T17:27:15.228Z,1.87
2023-04-04T17:29:43.408Z,1.90
2023-04-04T17:32:11.541Z,1.90
2023-04-04T17:34:40.071Z,1.85
2023-04-04T17:37:11.240Z,1.81
2023-04-04T17:39:39.637Z,1.75
2023-04-04T17:42:07.427Z,1.72
2023-04-04T17:44:36.157Z,1.68
2023-04-04T17:47:03.939Z,1.69
2023-04-04T17:49:32.209Z,1.67
2023-04-04T17:51:59.519Z,1.66
2023-04-04T17:54:30.026Z,1.63
2023-04-04T17:56:58.004Z,1.68
2023-04-04T17:59:26.372Z,1.70
2023-04-04T18:01:54.452Z,1.66
2023-04-04T18:04:22.768Z,1.66
2023-04-04T18:06:50.473Z,1.66
2023-04-04T18:09:18.807Z,1.65
2023-04-04T18:11:46.957Z,1.71
2023-04-04T18:14:15.367Z,1.60
2023-04-04T18:16:43.175Z,1.57
2023-04-04T18:19:12.326Z,1.57
2023-04-04T18:21:39.780Z,1.50
2023-04-04T18:24:11.358Z,1.44
2023-04-04T18:26:39.214Z,1.45
2023-04-04T18:29:07.575Z,1.41
2023-04-04T18:31:35.343Z,1.42
2023-04-04T18:34:03.449Z,1.36
2023-04-04T18:36:31.284Z,1.33
2023-04-04T18:39:01.633Z,1.30
2023-04-04T18:41:29.695Z,1.24
2023-04-04T18:43:58.010Z,1.28
2023-04-04T18:46:25.851Z,1.26
2023-04-04T18:48:54.344Z,1.25
2023-04-04T18:51:23.565Z,1.25
2023-04-04T18:53:52.450Z,1.24
2023-04-04T18:56:20.357Z,1.23
2023-04-04T18:58:48.933Z,1.24
2023-04-04T19:01:17.287Z,1.23
2023-04-04T19:03:48.674Z,1.24
2023-04-04T19:06:16.528Z,1.26
2023-04-04T19:08:44.608Z,1.21
2023-04-04T19:11:12.917Z,1.17
2023-04-04T19:13:41.597Z,1.16
2023-04-04T19:16:09.046Z,1.18
2023-04-04T19:18:37.148Z,1.19
2023-04-04T19:21:07.633Z,1.16
2023-04-04T19:23:37.719Z,1.05
2023-04-04T19:26:06.862Z,1.04
2023-04-04T19:28:35.572Z,1.04
2023-04-04T19:31:05.609Z,0.96
2023-04-04T19:33:33.784Z,1.00
2023-04-04T19:36:07.984Z,1.04
2023-04-04T19:38:36.866Z,1.01
2023-04-04T19:41:27.810Z,0.98
2023-04-04T19:43:56.196Z,0.91
2023-04-04T19:46:28.022Z,0.81
2023-04-04T19:48:57.187Z,0.81
2023-04-04T19:51:24.894Z,0.73
2023-04-04T19:53:53.971Z,0.73
2023-04-04T19:56:23.827Z,0.69
2023-04-04T19:58:58.599Z,0.66
2023-04-04T20:01:30.352Z,0.66
2023-04-04T20:04:01.683Z,0.63
2023-04-04T20:06:30.313Z,0.61
2023-04-04T20:08:59.352Z,0.59
2023-04-04T20:11:34.040Z,0.65
2023-04-04T20:14:04.128Z,0.67
2023-04-04T20:16:32.353Z,0.67
2023-04-04T20:19:01.170Z,0.58
2023-04-04T20:21:31.834Z,0.52
2023-04-04T20:24:03.652Z,0.50
2023-04-04T20:26:44.206Z,0.41
2023-04-04T20:29:16.909Z,0.41
2023-04-04T20:31:46.905Z,0.41
2023-04-04T20:34:33.988Z,0.39
2023-04-04T20:37:02.634Z,0.36
2023-04-04T20:39:44.175Z,0.17
2023-04-04T20:42:18.079Z,-0.01
2023-04-04T20:44:47.022Z,-0.19
2023-04-04T20:47:33.544Z,-0.27
2023-04-04T20:50:01.930Z,-0.35
2023-04-04T20:52:29.660Z,-0.44
2023-04-04T20:54:57.760Z,-0.43
2023-04-04T20:57:26.288Z,-0.49
2023-04-04T20:59:54.274Z,-0.59
2023-04-04T21:02:23.799Z,-0.60
2023-04-04T21:04:52.587Z,-0.64
2023-04-04T21:07:38.960Z,-0.74
2023-04-04T21:10:19.713Z,-0.75
2023-04-04T21:12:47.411Z,-0.81
2023-04-04T21:15:20.324Z,-0.82
2023-04-04T21:17:48.472Z,-0.90
2023-04-04T21:20:17.288Z,-0.98
2023-04-04T21:22:46.227Z,-0.99
2023-04-04T21:25:18.744Z,-1.01
2023-04-04T21:27:46.349Z,-1.02
2023-04-04T21:30:34.387Z,-1.06
2023-04-04T21:33:01.899Z,-1.16
2023-04-04T21:35:48.964Z,-1.15
2023-04-04T21:38:43.264Z,-1.20
2023-04-04T21:41:11.396Z,-1.28
2023-04-04T21:43:39.129Z,-1.34
2023-04-04T21:46:07.493Z,-1.37
2023-04-04T21:48:35.157Z,-1.40
2023-04-04T21:51:03.274Z,-1.46
2023-04-04T21:53:31.389Z,-1.51
2023-04-04T21:55:59.497Z,-1.53
2023-04-04T21:58:27.462Z,-1.57
2023-04-04T22:00:56.055Z,-1.59
2023-04-04T22:03:23.570Z,-1.62
2023-04-04T22:05:52.008Z,-1.65
2023-04-04T22:08:19.732Z,-1.71
2023-04-04T22:10:50.748Z,-1.77
2023-04-04T22:13:19.112Z,-1.82
2023-04-04T22:15:47.176Z,-1.91
2023-04-04T22:18:15.774Z,-1.98
2023-04-04T22:20:44.519Z,-2.04
2023-04-04T22:23:13.931Z,-2.10
2023-04-04T22:25:42.101Z,-2.09
2023-04-04T22:28:09.984Z,-2.10
2023-04-04T22:30:39.479Z,-2.10
2023-04-04T22:33:07.166Z,-2.08
2023-04-04T22:35:36.101Z,-2.08
2023-04-04T22:38:04.514Z,-2.09
2023-04-04T22:40:33.391Z,-2.09
2023-04-04T22:43:02.028Z,-2.05
2023-04-04T22:45:30.283Z,-2.07
2023-04-04T22:47:58.356Z,-2.13
2023-04-04T22:50:27.053Z,-2.11
2023-04-04T22:52:55.875Z,-2.08
2023-04-04T22:55:24.704Z,-2.07
2023-04-04T22:57:52.400Z,-2.14
2023-04-04T23:00:20.258Z,-2.19
2023-04-04T23:02:48.869Z,-2.20
2023-04-04T23:05:17.669Z,-2.19
2023-04-04T23:07:46.068Z,-2.15
2023-04-04T23:10:14.915Z,-2.14
2023-04-04T23:12:43.094Z,-2.14
2023-04-04T23:15:13.891Z,-2.11
2023-04-04T23:17:41.784Z,-2.08
2023-04-04T23:20:10.275Z,-2.07
2023-04-04T23:22:38.528Z,-2.06
2023-04-04T23:25:07.884Z,-2.07
2023-04-04T23:27:35.604Z,-2.13
2023-04-04T23:30:04.247Z,-2.11
2023-04-04T23:32:33.831Z,-2.11
2023-04-04T23:35:01.991Z,-2.14
2023-04-04T23:37:29.568Z,-2.14
2023-04-04T23:39:57.176Z,-2.14
2023-04-04T23:42:25.590Z,-2.14
2023-04-04T23:44:53.889Z,-2.15
2023-04-04T23:47:21.910Z,-2.14
2023-04-04T23:49:49.884Z,-2.14
2023-04-04T23:52:17.757Z,-2.10
2023-04-04T23:54:45.558Z,-2.10
2023-04-04T23:57:13.303Z,-2.11
2023-04-04T23:59:41.691Z,-2.09
